sensor_id;sensor_type;location;lat;lon;timestamp;P1;durP1;ratioP1;P2;durP2;ratioP2
7406;SDS011;3745;56.964;24.128;2023-08-06T00:00:14;6.95;;;6.25;;
7406;SDS011;3745;56.964;24.128;2023-08-06T00:02:39;7.00;;;6.38;;
7406;SDS011;3745;56.964;24.128;2023-08-06T00:05:05;7.57;;;6.82;;
7406;SDS011;3745;56.964;24.128;2023-08-06T00:07:31;6.70;;;6.30;;
7406;SDS011;3745;56.964;24.128;2023-08-06T00:09:57;9.35;;;6.50;;
7406;SDS011;3745;56.964;24.128;2023-08-06T00:12:22;9.27;;;6.30;;
7406;SDS011;3745;56.964;24.128;2023-08-06T00:14:51;6.68;;;6.18;;
7406;SDS011;3745;56.964;24.128;2023-08-06T00:17:17;7.53;;;5.90;;
7406;SDS011;3745;56.964;24.128;2023-08-06T00:19:43;6.75;;;6.13;;
7406;SDS011;3745;56.964;24.128;2023-08-06T00:22:09;6.28;;;5.68;;
7406;SDS011;3745;56.964;24.128;2023-08-06T00:24:34;6.85;;;6.35;;
7406;SDS011;3745;56.964;24.128;2023-08-06T00:27:00;6.53;;;6.13;;
7406;SDS011;3745;56.964;24.128;2023-08-06T00:29:26;5.00;;;4.53;;
7406;SDS011;3745;56.964;24.128;2023-08-06T00:31:52;6.40;;;5.80;;
7406;SDS011;3745;56.964;24.128;2023-08-06T00:34:17;5.90;;;5.50;;
7406;SDS011;3745;56.964;24.128;2023-08-06T00:36:43;7.05;;;6.38;;
7406;SDS011;3745;56.964;24.128;2023-08-06T00:39:08;6.40;;;5.90;;
7406;SDS011;3745;56.964;24.128;2023-08-06T00:41:34;6.50;;;6.10;;
7406;SDS011;3745;56.964;24.128;2023-08-06T00:44:00;6.82;;;6.32;;
7406;SDS011;3745;56.964;24.128;2023-08-06T00:46:25;6.43;;;5.82;;
7406;SDS011;3745;56.964;24.128;2023-08-06T00:48:51;7.38;;;6.00;;
7406;SDS011;3745;56.964;24.128;2023-08-06T00:51:17;6.95;;;6.32;;
7406;SDS011;3745;56.964;24.128;2023-08-06T00:53:44;8.48;;;6.25;;
7406;SDS011;3745;56.964;24.128;2023-08-06T00:56:10;6.70;;;6.10;;
7406;SDS011;3745;56.964;24.128;2023-08-06T00:58:36;6.85;;;6.28;;
7406;SDS011;3745;56.964;24.128;2023-08-06T01:01:02;8.82;;;7.00;;
7406;SDS011;3745;56.964;24.128;2023-08-06T01:03:27;7.63;;;7.03;;
7406;SDS011;3745;56.964;24.128;2023-08-06T01:05:53;6.40;;;5.85;;
7406;SDS011;3745;56.964;24.128;2023-08-06T01:10:55;7.25;;;6.53;;
7406;SDS011;3745;56.964;24.128;2023-08-06T01:13:45;7.03;;;6.32;;
7406;SDS011;3745;56.964;24.128;2023-08-06T01:16:15;6.97;;;6.25;;
7406;SDS011;3745;56.964;24.128;2023-08-06T01:18:42;7.03;;;6.38;;
7406;SDS011;3745;56.964;24.128;2023-08-06T01:21:11;8.15;;;6.72;;
7406;SDS011;3745;56.964;24.128;2023-08-06T01:23:41;6.57;;;6.13;;
7406;SDS011;3745;56.964;24.128;2023-08-06T01:31:36;8.43;;;6.72;;
7406;SDS011;3745;56.964;24.128;2023-08-06T01:34:05;7.15;;;6.55;;
7406;SDS011;3745;56.964;24.128;2023-08-06T01:36:34;7.20;;;6.60;;
7406;SDS011;3745;56.964;24.128;2023-08-06T01:39:01;6.25;;;5.85;;
7406;SDS011;3745;56.964;24.128;2023-08-06T01:41:27;10.27;;;6.68;;
7406;SDS011;3745;56.964;24.128;2023-08-06T01:43:52;6.28;;;5.82;;
7406;SDS011;3745;56.964;24.128;2023-08-06T01:46:18;6.82;;;6.22;;
7406;SDS011;3745;56.964;24.128;2023-08-06T01:48:43;6.97;;;6.47;;
7406;SDS011;3745;56.964;24.128;2023-08-06T01:51:09;6.55;;;6.03;;
7406;SDS011;3745;56.964;24.128;2023-08-06T01:53:34;6.78;;;6.15;;
7406;SDS011;3745;56.964;24.128;2023-08-06T01:56:00;8.13;;;6.07;;
7406;SDS011;3745;56.964;24.128;2023-08-06T01:58:26;8.38;;;6.93;;
7406;SDS011;3745;56.964;24.128;2023-08-06T02:00:51;8.15;;;6.90;;
7406;SDS011;3745;56.964;24.128;2023-08-06T02:03:17;9.43;;;6.82;;
7406;SDS011;3745;56.964;24.128;2023-08-06T02:05:42;6.80;;;6.30;;
7406;SDS011;3745;56.964;24.128;2023-08-06T02:08:08;7.53;;;6.70;;
7406;SDS011;3745;56.964;24.128;2023-08-06T02:10:34;7.45;;;6.70;;
7406;SDS011;3745;56.964;24.128;2023-08-06T02:12:59;7.38;;;6.68;;
7406;SDS011;3745;56.964;24.128;2023-08-06T02:15:25;7.55;;;6.85;;
7406;SDS011;3745;56.964;24.128;2023-08-06T02:17:51;7.55;;;6.85;;
7406;SDS011;3745;56.964;24.128;2023-08-06T02:20:16;9.18;;;7.28;;
7406;SDS011;3745;56.964;24.128;2023-08-06T02:22:42;8.35;;;6.20;;
7406;SDS011;3745;56.964;24.128;2023-08-06T02:25:08;7.03;;;6.43;;
7406;SDS011;3745;56.964;24.128;2023-08-06T02:27:33;7.18;;;6.70;;
7406;SDS011;3745;56.964;24.128;2023-08-06T02:29:59;7.47;;;6.72;;
7406;SDS011;3745;56.964;24.128;2023-08-06T02:32:25;7.07;;;6.57;;
7406;SDS011;3745;56.964;24.128;2023-08-06T02:34:50;7.43;;;6.80;;
7406;SDS011;3745;56.964;24.128;2023-08-06T02:37:16;7.60;;;7.00;;
7406;SDS011;3745;56.964;24.128;2023-08-06T02:39:42;7.38;;;6.68;;
7406;SDS011;3745;56.964;24.128;2023-08-06T02:42:08;7.13;;;6.53;;
7406;SDS011;3745;56.964;24.128;2023-08-06T02:44:34;7.13;;;6.47;;
7406;SDS011;3745;56.964;24.128;2023-08-06T02:47:00;8.93;;;7.10;;
7406;SDS011;3745;56.964;24.128;2023-08-06T02:49:26;7.13;;;6.43;;
7406;SDS011;3745;56.964;24.128;2023-08-06T02:51:52;8.32;;;7.40;;
7406;SDS011;3745;56.964;24.128;2023-08-06T02:54:18;9.73;;;7.20;;
7406;SDS011;3745;56.964;24.128;2023-08-06T02:56:44;8.23;;;7.45;;
7406;SDS011;3745;56.964;24.128;2023-08-06T02:59:11;7.97;;;7.25;;
7406;SDS011;3745;56.964;24.128;2023-08-06T03:01:36;7.47;;;6.75;;
7406;SDS011;3745;56.964;24.128;2023-08-06T03:04:02;8.23;;;6.93;;
7406;SDS011;3745;56.964;24.128;2023-08-06T03:06:28;8.68;;;7.38;;
7406;SDS011;3745;56.964;24.128;2023-08-06T03:08:53;7.85;;;7.00;;
7406;SDS011;3745;56.964;24.128;2023-08-06T03:11:19;8.13;;;7.32;;
7406;SDS011;3745;56.964;24.128;2023-08-06T03:13:44;8.30;;;7.60;;
7406;SDS011;3745;56.964;24.128;2023-08-06T03:16:10;9.02;;;7.53;;
7406;SDS011;3745;56.964;24.128;2023-08-06T03:18:36;8.13;;;7.32;;
7406;SDS011;3745;56.964;24.128;2023-08-06T03:21:01;8.48;;;7.70;;
7406;SDS011;3745;56.964;24.128;2023-08-06T03:23:27;8.07;;;7.38;;
7406;SDS011;3745;56.964;24.128;2023-08-06T03:25:52;9.10;;;8.10;;
7406;SDS011;3745;56.964;24.128;2023-08-06T03:28:18;8.65;;;7.80;;
7406;SDS011;3745;56.964;24.128;2023-08-06T03:30:43;11.30;;;7.97;;
7406;SDS011;3745;56.964;24.128;2023-08-06T03:33:09;8.15;;;7.50;;
7406;SDS011;3745;56.964;24.128;2023-08-06T03:35:34;8.57;;;7.82;;
7406;SDS011;3745;56.964;24.128;2023-08-06T03:38:00;7.90;;;7.18;;
7406;SDS011;3745;56.964;24.128;2023-08-06T03:40:26;10.43;;;7.45;;
7406;SDS011;3745;56.964;24.128;2023-08-06T03:42:51;9.65;;;7.45;;
7406;SDS011;3745;56.964;24.128;2023-08-06T03:45:17;8.63;;;7.72;;
7406;SDS011;3745;56.964;24.128;2023-08-06T03:47:42;8.88;;;8.00;;
7406;SDS011;3745;56.964;24.128;2023-08-06T03:50:08;8.27;;;7.57;;
7406;SDS011;3745;56.964;24.128;2023-08-06T03:52:34;9.13;;;8.27;;
7406;SDS011;3745;56.964;24.128;2023-08-06T03:54:59;8.35;;;7.60;;
7406;SDS011;3745;56.964;24.128;2023-08-06T03:57:25;7.72;;;7.13;;
7406;SDS011;3745;56.964;24.128;2023-08-06T03:59:51;12.18;;;8.30;;
7406;SDS011;3745;56.964;24.128;2023-08-06T04:02:16;7.45;;;6.85;;
7406;SDS011;3745;56.964;24.128;2023-08-06T04:04:42;8.52;;;7.65;;
7406;SDS011;3745;56.964;24.128;2023-08-06T04:07:07;9.73;;;7.88;;
7406;SDS011;3745;56.964;24.128;2023-08-06T04:09:33;8.60;;;7.78;;
7406;SDS011;3745;56.964;24.128;2023-08-06T04:11:59;7.93;;;7.18;;
7406;SDS011;3745;56.964;24.128;2023-08-06T04:14:26;9.88;;;7.75;;
7406;SDS011;3745;56.964;24.128;2023-08-06T04:16:53;8.45;;;7.65;;
7406;SDS011;3745;56.964;24.128;2023-08-06T04:19:18;9.20;;;8.35;;
7406;SDS011;3745;56.964;24.128;2023-08-06T04:21:44;8.27;;;7.47;;
7406;SDS011;3745;56.964;24.128;2023-08-06T04:24:09;9.60;;;7.75;;
7406;SDS011;3745;56.964;24.128;2023-08-06T04:26:35;8.07;;;7.28;;
7406;SDS011;3745;56.964;24.128;2023-08-06T04:29:00;8.88;;;7.45;;
7406;SDS011;3745;56.964;24.128;2023-08-06T04:31:26;8.82;;;6.97;;
7406;SDS011;3745;56.964;24.128;2023-08-06T04:33:51;8.30;;;7.35;;
7406;SDS011;3745;56.964;24.128;2023-08-06T04:36:17;7.63;;;7.03;;
7406;SDS011;3745;56.964;24.128;2023-08-06T04:38:42;7.18;;;6.65;;
7406;SDS011;3745;56.964;24.128;2023-08-06T04:41:10;7.10;;;6.60;;
7406;SDS011;3745;56.964;24.128;2023-08-06T04:43:36;7.60;;;7.00;;
7406;SDS011;3745;56.964;24.128;2023-08-06T04:46:02;7.68;;;6.80;;
7406;SDS011;3745;56.964;24.128;2023-08-06T04:48:28;8.20;;;6.90;;
7406;SDS011;3745;56.964;24.128;2023-08-06T04:50:53;8.05;;;7.32;;
7406;SDS011;3745;56.964;24.128;2023-08-06T04:53:19;9.68;;;7.25;;
7406;SDS011;3745;56.964;24.128;2023-08-06T04:55:45;8.35;;;7.00;;
7406;SDS011;3745;56.964;24.128;2023-08-06T04:58:12;7.07;;;6.57;;
7406;SDS011;3745;56.964;24.128;2023-08-06T05:00:38;9.02;;;7.43;;
7406;SDS011;3745;56.964;24.128;2023-08-06T05:03:04;7.70;;;7.00;;
7406;SDS011;3745;56.964;24.128;2023-08-06T05:05:32;11.05;;;7.75;;
7406;SDS011;3745;56.964;24.128;2023-08-06T05:07:57;8.30;;;7.50;;
7406;SDS011;3745;56.964;24.128;2023-08-06T05:10:26;8.55;;;7.68;;
7406;SDS011;3745;56.964;24.128;2023-08-06T05:12:53;8.18;;;7.47;;
7406;SDS011;3745;56.964;24.128;2023-08-06T05:15:19;8.35;;;7.63;;
7406;SDS011;3745;56.964;24.128;2023-08-06T05:17:44;10.07;;;8.15;;
7406;SDS011;3745;56.964;24.128;2023-08-06T05:20:10;8.73;;;8.02;;
7406;SDS011;3745;56.964;24.128;2023-08-06T05:22:36;8.43;;;7.72;;
7406;SDS011;3745;56.964;24.128;2023-08-06T05:25:02;8.43;;;7.72;;
7406;SDS011;3745;56.964;24.128;2023-08-06T05:27:28;10.27;;;7.80;;
7406;SDS011;3745;56.964;24.128;2023-08-06T05:29:56;7.88;;;7.22;;
7406;SDS011;3745;56.964;24.128;2023-08-06T05:32:22;8.65;;;7.78;;
7406;SDS011;3745;56.964;24.128;2023-08-06T05:34:47;8.70;;;7.90;;
7406;SDS011;3745;56.964;24.128;2023-08-06T05:37:13;10.93;;;7.45;;
7406;SDS011;3745;56.964;24.128;2023-08-06T05:39:39;8.48;;;7.68;;
7406;SDS011;3745;56.964;24.128;2023-08-06T05:42:04;10.73;;;8.63;;
7406;SDS011;3745;56.964;24.128;2023-08-06T05:44:30;10.38;;;8.57;;
7406;SDS011;3745;56.964;24.128;2023-08-06T05:46:56;10.68;;;9.40;;
7406;SDS011;3745;56.964;24.128;2023-08-06T05:49:22;13.77;;;9.20;;
7406;SDS011;3745;56.964;24.128;2023-08-06T05:51:47;17.45;;;10.15;;
7406;SDS011;3745;56.964;24.128;2023-08-06T05:54:13;11.07;;;9.93;;
7406;SDS011;3745;56.964;24.128;2023-08-06T05:56:39;11.73;;;9.20;;
7406;SDS011;3745;56.964;24.128;2023-08-06T05:59:04;10.63;;;8.98;;
7406;SDS011;3745;56.964;24.128;2023-08-06T06:01:30;11.93;;;8.55;;
7406;SDS011;3745;56.964;24.128;2023-08-06T06:03:56;9.45;;;8.45;;
7406;SDS011;3745;56.964;24.128;2023-08-06T06:06:21;9.68;;;8.68;;
7406;SDS011;3745;56.964;24.128;2023-08-06T06:08:47;8.18;;;7.38;;
7406;SDS011;3745;56.964;24.128;2023-08-06T06:11:12;7.80;;;7.20;;
7406;SDS011;3745;56.964;24.128;2023-08-06T06:13:38;7.60;;;7.10;;
7406;SDS011;3745;56.964;24.128;2023-08-06T06:16:04;7.68;;;7.18;;
7406;SDS011;3745;56.964;24.128;2023-08-06T06:18:30;8.15;;;7.45;;
7406;SDS011;3745;56.964;24.128;2023-08-06T06:20:56;9.60;;;8.70;;
7406;SDS011;3745;56.964;24.128;2023-08-06T06:23:21;8.02;;;7.35;;
7406;SDS011;3745;56.964;24.128;2023-08-06T06:25:48;8.07;;;7.47;;
7406;SDS011;3745;56.964;24.128;2023-08-06T06:28:14;8.82;;;7.45;;
7406;SDS011;3745;56.964;24.128;2023-08-06T06:30:40;8.43;;;7.68;;
7406;SDS011;3745;56.964;24.128;2023-08-06T06:33:07;9.05;;;7.97;;
7406;SDS011;3745;56.964;24.128;2023-08-06T06:35:33;8.30;;;7.43;;
7406;SDS011;3745;56.964;24.128;2023-08-06T06:37:58;8.73;;;8.07;;
7406;SDS011;3745;56.964;24.128;2023-08-06T06:40:25;8.48;;;7.75;;
7406;SDS011;3745;56.964;24.128;2023-08-06T06:42:50;8.40;;;7.70;;
7406;SDS011;3745;56.964;24.128;2023-08-06T06:45:16;8.50;;;7.80;;
7406;SDS011;3745;56.964;24.128;2023-08-06T06:47:41;10.38;;;8.43;;
7406;SDS011;3745;56.964;24.128;2023-08-06T06:50:07;9.15;;;8.25;;
7406;SDS011;3745;56.964;24.128;2023-08-06T06:52:33;8.57;;;7.97;;
7406;SDS011;3745;56.964;24.128;2023-08-06T06:54:59;9.27;;;8.57;;
7406;SDS011;3745;56.964;24.128;2023-08-06T06:57:24;9.13;;;8.13;;
7406;SDS011;3745;56.964;24.128;2023-08-06T06:59:50;8.93;;;8.23;;
7406;SDS011;3745;56.964;24.128;2023-08-06T07:02:16;9.82;;;8.93;;
7406;SDS011;3745;56.964;24.128;2023-08-06T07:04:41;9.88;;;8.88;;
7406;SDS011;3745;56.964;24.128;2023-08-06T07:07:07;11.93;;;9.30;;
7406;SDS011;3745;56.964;24.128;2023-08-06T07:09:32;10.07;;;9.20;;
7406;SDS011;3745;56.964;24.128;2023-08-06T07:11:58;10.85;;;9.88;;
7406;SDS011;3745;56.964;24.128;2023-08-06T07:14:28;9.32;;;8.52;;
7406;SDS011;3745;56.964;24.128;2023-08-06T07:16:54;9.68;;;8.88;;
7406;SDS011;3745;56.964;24.128;2023-08-06T07:19:20;10.88;;;9.77;;
7406;SDS011;3745;56.964;24.128;2023-08-06T07:21:45;13.93;;;9.90;;
7406;SDS011;3745;56.964;24.128;2023-08-06T07:24:11;10.93;;;9.88;;
7406;SDS011;3745;56.964;24.128;2023-08-06T07:26:37;11.60;;;10.48;;
7406;SDS011;3745;56.964;24.128;2023-08-06T07:29:03;10.38;;;9.40;;
7406;SDS011;3745;56.964;24.128;2023-08-06T07:31:28;13.95;;;10.02;;
7406;SDS011;3745;56.964;24.128;2023-08-06T07:33:54;10.85;;;9.82;;
7406;SDS011;3745;56.964;24.128;2023-08-06T07:36:20;10.70;;;9.73;;
7406;SDS011;3745;56.964;24.128;2023-08-06T07:38:45;10.68;;;9.82;;
7406;SDS011;3745;56.964;24.128;2023-08-06T07:41:11;11.65;;;10.57;;
7406;SDS011;3745;56.964;24.128;2023-08-06T07:43:36;11.55;;;10.50;;
7406;SDS011;3745;56.964;24.128;2023-08-06T07:46:02;11.13;;;10.07;;
7406;SDS011;3745;56.964;24.128;2023-08-06T07:48:28;11.85;;;10.48;;
7406;SDS011;3745;56.964;24.128;2023-08-06T07:50:54;11.65;;;10.50;;
7406;SDS011;3745;56.964;24.128;2023-08-06T07:53:24;11.32;;;10.18;;
7406;SDS011;3745;56.964;24.128;2023-08-06T07:55:52;12.48;;;11.27;;
7406;SDS011;3745;56.964;24.128;2023-08-06T07:58:19;11.30;;;10.30;;
7406;SDS011;3745;56.964;24.128;2023-08-06T08:00:45;11.20;;;10.10;;
7406;SDS011;3745;56.964;24.128;2023-08-06T08:03:15;11.35;;;10.35;;
7406;SDS011;3745;56.964;24.128;2023-08-06T08:05:41;14.85;;;10.68;;
7406;SDS011;3745;56.964;24.128;2023-08-06T08:08:08;11.43;;;10.13;;
7406;SDS011;3745;56.964;24.128;2023-08-06T08:10:33;11.60;;;10.57;;
7406;SDS011;3745;56.964;24.128;2023-08-06T08:13:00;11.00;;;9.95;;
7406;SDS011;3745;56.964;24.128;2023-08-06T08:15:28;12.13;;;10.93;;
7406;SDS011;3745;56.964;24.128;2023-08-06T08:17:54;12.02;;;10.60;;
7406;SDS011;3745;56.964;24.128;2023-08-06T08:20:20;12.02;;;10.65;;
7406;SDS011;3745;56.964;24.128;2023-08-06T08:22:46;11.77;;;10.70;;
7406;SDS011;3745;56.964;24.128;2023-08-06T08:25:12;13.20;;;11.35;;
7406;SDS011;3745;56.964;24.128;2023-08-06T08:27:38;11.73;;;10.52;;
7406;SDS011;3745;56.964;24.128;2023-08-06T08:30:04;14.07;;;11.38;;
7406;SDS011;3745;56.964;24.128;2023-08-06T08:32:30;12.07;;;10.77;;
7406;SDS011;3745;56.964;24.128;2023-08-06T08:34:56;12.35;;;11.25;;
7406;SDS011;3745;56.964;24.128;2023-08-06T08:37:22;11.82;;;10.65;;
7406;SDS011;3745;56.964;24.128;2023-08-06T08:39:48;12.55;;;11.27;;
7406;SDS011;3745;56.964;24.128;2023-08-06T08:42:14;12.20;;;11.18;;
7406;SDS011;3745;56.964;24.128;2023-08-06T08:44:41;12.25;;;11.25;;
7406;SDS011;3745;56.964;24.128;2023-08-06T08:47:08;12.20;;;11.15;;
7406;SDS011;3745;56.964;24.128;2023-08-06T08:49:37;11.88;;;10.77;;
7406;SDS011;3745;56.964;24.128;2023-08-06T08:52:03;12.68;;;11.43;;
7406;SDS011;3745;56.964;24.128;2023-08-06T08:54:34;12.18;;;11.07;;
7406;SDS011;3745;56.964;24.128;2023-08-06T08:57:03;13.98;;;10.48;;
7406;SDS011;3745;56.964;24.128;2023-08-06T08:59:29;12.90;;;11.60;;
7406;SDS011;3745;56.964;24.128;2023-08-06T09:01:54;12.00;;;10.88;;
7406;SDS011;3745;56.964;24.128;2023-08-06T09:04:21;11.77;;;10.63;;
7406;SDS011;3745;56.964;24.128;2023-08-06T09:06:49;12.98;;;11.68;;
7406;SDS011;3745;56.964;24.128;2023-08-06T09:09:17;14.73;;;11.15;;
7406;SDS011;3745;56.964;24.128;2023-08-06T09:11:50;12.68;;;11.02;;
7406;SDS011;3745;56.964;24.128;2023-08-06T09:14:16;13.35;;;10.75;;
7406;SDS011;3745;56.964;24.128;2023-08-06T09:16:43;11.98;;;10.77;;
7406;SDS011;3745;56.964;24.128;2023-08-06T09:19:12;12.20;;;11.10;;
7406;SDS011;3745;56.964;24.128;2023-08-06T09:21:40;13.18;;;11.75;;
7406;SDS011;3745;56.964;24.128;2023-08-06T09:24:08;12.25;;;10.95;;
7406;SDS011;3745;56.964;24.128;2023-08-06T09:26:37;12.88;;;11.52;;
7406;SDS011;3745;56.964;24.128;2023-08-06T09:29:07;12.77;;;11.38;;
7406;SDS011;3745;56.964;24.128;2023-08-06T09:31:39;15.93;;;11.82;;
7406;SDS011;3745;56.964;24.128;2023-08-06T09:34:10;12.23;;;11.07;;
7406;SDS011;3745;56.964;24.128;2023-08-06T09:36:42;13.02;;;11.10;;
7406;SDS011;3745;56.964;24.128;2023-08-06T09:39:15;12.80;;;11.65;;
7406;SDS011;3745;56.964;24.128;2023-08-06T09:41:45;12.90;;;11.57;;
7406;SDS011;3745;56.964;24.128;2023-08-06T09:44:15;12.23;;;10.95;;
7406;SDS011;3745;56.964;24.128;2023-08-06T09:47:03;11.82;;;10.82;;
7406;SDS011;3745;56.964;24.128;2023-08-06T09:51:57;12.05;;;10.48;;
7406;SDS011;3745;56.964;24.128;2023-08-06T09:54:25;11.32;;;10.18;;
7406;SDS011;3745;56.964;24.128;2023-08-06T09:56:53;12.35;;;11.27;;
7406;SDS011;3745;56.964;24.128;2023-08-06T09:59:19;12.45;;;11.02;;
7406;SDS011;3745;56.964;24.128;2023-08-06T10:01:45;11.65;;;10.65;;
7406;SDS011;3745;56.964;24.128;2023-08-06T10:04:11;12.85;;;11.45;;
7406;SDS011;3745;56.964;24.128;2023-08-06T10:06:42;11.45;;;10.60;;
7406;SDS011;3745;56.964;24.128;2023-08-06T10:09:11;12.57;;;11.48;;
7406;SDS011;3745;56.964;24.128;2023-08-06T10:11:37;11.90;;;10.65;;
7406;SDS011;3745;56.964;24.128;2023-08-06T10:14:06;11.88;;;10.88;;
7406;SDS011;3745;56.964;24.128;2023-08-06T10:16:34;12.35;;;11.32;;
7406;SDS011;3745;56.964;24.128;2023-08-06T10:19:01;12.73;;;11.52;;
7406;SDS011;3745;56.964;24.128;2023-08-06T10:21:33;12.90;;;11.23;;
7406;SDS011;3745;56.964;24.128;2023-08-06T10:23:58;14.25;;;11.38;;
7406;SDS011;3745;56.964;24.128;2023-08-06T10:26:27;12.00;;;10.98;;
7406;SDS011;3745;56.964;24.128;2023-08-06T10:28:54;13.45;;;11.27;;
7406;SDS011;3745;56.964;24.128;2023-08-06T10:31:20;12.15;;;11.02;;
7406;SDS011;3745;56.964;24.128;2023-08-06T10:34:17;12.55;;;10.98;;
7406;SDS011;3745;56.964;24.128;2023-08-06T10:36:44;12.20;;;11.10;;
7406;SDS011;3745;56.964;24.128;2023-08-06T10:39:13;12.63;;;11.30;;
7406;SDS011;3745;56.964;24.128;2023-08-06T10:41:39;15.18;;;11.60;;
7406;SDS011;3745;56.964;24.128;2023-08-06T10:44:09;12.05;;;11.05;;
7406;SDS011;3745;56.964;24.128;2023-08-06T10:46:36;12.93;;;11.57;;
7406;SDS011;3745;56.964;24.128;2023-08-06T10:49:05;15.45;;;11.30;;
7406;SDS011;3745;56.964;24.128;2023-08-06T10:51:32;11.75;;;10.77;;
7406;SDS011;3745;56.964;24.128;2023-08-06T10:53:58;12.30;;;11.00;;
7406;SDS011;3745;56.964;24.128;2023-08-06T10:56:24;13.32;;;10.77;;
7406;SDS011;3745;56.964;24.128;2023-08-06T10:58:53;11.52;;;10.43;;
7406;SDS011;3745;56.964;24.128;2023-08-06T11:01:21;13.73;;;11.18;;
7406;SDS011;3745;56.964;24.128;2023-08-06T11:03:48;12.30;;;10.70;;
7406;SDS011;3745;56.964;24.128;2023-08-06T11:06:19;12.48;;;11.35;;
7406;SDS011;3745;56.964;24.128;2023-08-06T11:08:52;12.02;;;11.00;;
7406;SDS011;3745;56.964;24.128;2023-08-06T11:11:19;12.68;;;11.27;;
7406;SDS011;3745;56.964;24.128;2023-08-06T11:13:49;12.43;;;10.85;;
7406;SDS011;3745;56.964;24.128;2023-08-06T11:16:19;12.25;;;11.15;;
7406;SDS011;3745;56.964;24.128;2023-08-06T11:18:48;12.50;;;11.32;;
7406;SDS011;3745;56.964;24.128;2023-08-06T11:21:14;12.57;;;11.13;;
7406;SDS011;3745;56.964;24.128;2023-08-06T11:23:42;12.05;;;10.95;;
7406;SDS011;3745;56.964;24.128;2023-08-06T11:26:08;12.55;;;11.27;;
7406;SDS011;3745;56.964;24.128;2023-08-06T11:28:33;15.35;;;10.80;;
7406;SDS011;3745;56.964;24.128;2023-08-06T11:30:59;14.43;;;10.90;;
7406;SDS011;3745;56.964;24.128;2023-08-06T11:33:27;11.93;;;10.85;;
7406;SDS011;3745;56.964;24.128;2023-08-06T11:35:57;13.07;;;11.75;;
7406;SDS011;3745;56.964;24.128;2023-08-06T11:38:24;11.77;;;10.65;;
7406;SDS011;3745;56.964;24.128;2023-08-06T11:40:52;11.88;;;10.77;;
7406;SDS011;3745;56.964;24.128;2023-08-06T11:43:18;12.63;;;11.43;;
7406;SDS011;3745;56.964;24.128;2023-08-06T11:45:45;14.88;;;11.07;;
7406;SDS011;3745;56.964;24.128;2023-08-06T11:48:11;12.93;;;11.73;;
7406;SDS011;3745;56.964;24.128;2023-08-06T11:50:37;12.68;;;11.20;;
7406;SDS011;3745;56.964;24.128;2023-08-06T11:53:06;12.68;;;11.52;;
7406;SDS011;3745;56.964;24.128;2023-08-06T11:55:32;13.48;;;11.23;;
7406;SDS011;3745;56.964;24.128;2023-08-06T11:57:58;12.68;;;11.32;;
7406;SDS011;3745;56.964;24.128;2023-08-06T12:00:28;12.27;;;11.35;;
7406;SDS011;3745;56.964;24.128;2023-08-06T12:02:54;13.23;;;12.00;;
7406;SDS011;3745;56.964;24.128;2023-08-06T12:05:20;13.30;;;11.93;;
7406;SDS011;3745;56.964;24.128;2023-08-06T12:07:53;14.73;;;11.02;;
7406;SDS011;3745;56.964;24.128;2023-08-06T12:10:21;12.32;;;11.10;;
7406;SDS011;3745;56.964;24.128;2023-08-06T12:12:49;13.35;;;12.13;;
7406;SDS011;3745;56.964;24.128;2023-08-06T12:15:15;12.93;;;11.75;;
7406;SDS011;3745;56.964;24.128;2023-08-06T12:17:41;12.30;;;11.38;;
7406;SDS011;3745;56.964;24.128;2023-08-06T12:20:08;12.57;;;11.52;;
7406;SDS011;3745;56.964;24.128;2023-08-06T12:22:34;12.63;;;11.38;;
7406;SDS011;3745;56.964;24.128;2023-08-06T12:25:01;12.65;;;11.30;;
7406;SDS011;3745;56.964;24.128;2023-08-06T12:27:29;12.20;;;11.10;;
7406;SDS011;3745;56.964;24.128;2023-08-06T12:29:54;12.52;;;11.23;;
7406;SDS011;3745;56.964;24.128;2023-08-06T12:32:20;13.43;;;11.30;;
7406;SDS011;3745;56.964;24.128;2023-08-06T12:34:47;12.32;;;11.23;;
7406;SDS011;3745;56.964;24.128;2023-08-06T12:37:12;12.75;;;11.52;;
7406;SDS011;3745;56.964;24.128;2023-08-06T12:39:38;15.05;;;11.50;;
7406;SDS011;3745;56.964;24.128;2023-08-06T12:42:04;12.65;;;11.48;;
7406;SDS011;3745;56.964;24.128;2023-08-06T12:44:31;11.60;;;10.70;;
7406;SDS011;3745;56.964;24.128;2023-08-06T12:46:57;12.23;;;11.25;;
7406;SDS011;3745;56.964;24.128;2023-08-06T12:49:24;13.75;;;11.57;;
7406;SDS011;3745;56.964;24.128;2023-08-06T12:51:51;12.85;;;11.85;;
7406;SDS011;3745;56.964;24.128;2023-08-06T12:54:17;13.50;;;12.18;;
7406;SDS011;3745;56.964;24.128;2023-08-06T12:56:47;14.82;;;11.90;;
7406;SDS011;3745;56.964;24.128;2023-08-06T12:59:16;12.65;;;11.65;;
7406;SDS011;3745;56.964;24.128;2023-08-06T13:01:43;16.20;;;11.40;;
7406;SDS011;3745;56.964;24.128;2023-08-06T13:04:09;12.65;;;11.55;;
7406;SDS011;3745;56.964;24.128;2023-08-06T13:06:35;12.77;;;11.70;;
7406;SDS011;3745;56.964;24.128;2023-08-06T13:09:11;12.73;;;11.52;;
7406;SDS011;3745;56.964;24.128;2023-08-06T13:11:38;12.55;;;11.20;;
7406;SDS011;3745;56.964;24.128;2023-08-06T13:14:05;12.88;;;11.32;;
7406;SDS011;3745;56.964;24.128;2023-08-06T13:16:32;11.93;;;11.02;;
7406;SDS011;3745;56.964;24.128;2023-08-06T13:18:58;12.70;;;11.55;;
7406;SDS011;3745;56.964;24.128;2023-08-06T13:21:24;12.50;;;11.55;;
7406;SDS011;3745;56.964;24.128;2023-08-06T13:23:49;14.13;;;12.20;;
7406;SDS011;3745;56.964;24.128;2023-08-06T13:26:15;12.80;;;11.63;;
7406;SDS011;3745;56.964;24.128;2023-08-06T13:28:41;13.10;;;11.90;;
7406;SDS011;3745;56.964;24.128;2023-08-06T13:31:07;13.20;;;12.07;;
7406;SDS011;3745;56.964;24.128;2023-08-06T13:33:32;14.77;;;12.60;;
7406;SDS011;3745;56.964;24.128;2023-08-06T13:35:58;12.70;;;11.52;;
7406;SDS011;3745;56.964;24.128;2023-08-06T13:38:24;12.30;;;11.15;;
7406;SDS011;3745;56.964;24.128;2023-08-06T13:40:49;13.25;;;12.02;;
7406;SDS011;3745;56.964;24.128;2023-08-06T13:43:15;14.80;;;11.10;;
7406;SDS011;3745;56.964;24.128;2023-08-06T13:45:42;13.18;;;11.25;;
7406;SDS011;3745;56.964;24.128;2023-08-06T13:48:07;12.85;;;11.57;;
7406;SDS011;3745;56.964;24.128;2023-08-06T13:50:35;15.02;;;11.63;;
7406;SDS011;3745;56.964;24.128;2023-08-06T13:53:01;12.85;;;11.75;;
7406;SDS011;3745;56.964;24.128;2023-08-06T13:55:27;13.93;;;11.73;;
7406;SDS011;3745;56.964;24.128;2023-08-06T13:57:53;12.85;;;11.75;;
7406;SDS011;3745;56.964;24.128;2023-08-06T14:00:18;14.05;;;11.32;;
7406;SDS011;3745;56.964;24.128;2023-08-06T14:02:44;16.20;;;11.35;;
7406;SDS011;3745;56.964;24.128;2023-08-06T14:05:10;13.93;;;11.77;;
7406;SDS011;3745;56.964;24.128;2023-08-06T14:07:35;13.13;;;11.82;;
7406;SDS011;3745;56.964;24.128;2023-08-06T14:10:01;15.43;;;12.77;;
7406;SDS011;3745;56.964;24.128;2023-08-06T14:12:26;13.43;;;11.95;;
7406;SDS011;3745;56.964;24.128;2023-08-06T14:14:52;12.65;;;11.38;;
7406;SDS011;3745;56.964;24.128;2023-08-06T14:17:18;14.30;;;11.50;;
7406;SDS011;3745;56.964;24.128;2023-08-06T14:19:43;13.32;;;11.82;;
7406;SDS011;3745;56.964;24.128;2023-08-06T14:22:09;13.35;;;12.20;;
7406;SDS011;3745;56.964;24.128;2023-08-06T14:24:34;13.20;;;12.00;;
7406;SDS011;3745;56.964;24.128;2023-08-06T14:27:00;13.52;;;12.23;;
7406;SDS011;3745;56.964;24.128;2023-08-06T14:29:25;13.18;;;11.85;;
7406;SDS011;3745;56.964;24.128;2023-08-06T14:31:51;14.23;;;12.38;;
7406;SDS011;3745;56.964;24.128;2023-08-06T14:34:17;12.88;;;11.80;;
7406;SDS011;3745;56.964;24.128;2023-08-06T14:36:42;13.30;;;11.90;;
7406;SDS011;3745;56.964;24.128;2023-08-06T14:39:08;13.65;;;12.27;;
7406;SDS011;3745;56.964;24.128;2023-08-06T14:41:33;13.05;;;11.85;;
7406;SDS011;3745;56.964;24.128;2023-08-06T14:43:59;12.48;;;11.48;;
7406;SDS011;3745;56.964;24.128;2023-08-06T14:46:25;14.27;;;11.98;;
7406;SDS011;3745;56.964;24.128;2023-08-06T14:48:50;12.80;;;11.55;;
7406;SDS011;3745;56.964;24.128;2023-08-06T14:51:16;14.90;;;12.68;;
7406;SDS011;3745;56.964;24.128;2023-08-06T14:53:44;14.43;;;11.68;;